createdAt,value
2023-03-23T15:58:55.986Z,13.25
2023-03-23T16:01:43.612Z,12.10
2023-03-23T16:04:17.360Z,11.40
2023-03-23T16:06:46.848Z,10.15
2023-03-23T16:09:18.885Z,12.17
2023-03-23T16:11:48.006Z,9.23
2023-03-23T16:14:19.457Z,11.33
2023-03-23T16:16:52.226Z,8.47
2023-03-23T16:19:23.808Z,8.03
2023-03-23T16:21:52.811Z,10.93
2023-03-23T16:24:21.946Z,10.00
2023-03-23T16:26:50.942Z,10.37
2023-03-23T16:29:39.868Z,12.47
2023-03-23T16:32:09.255Z,11.07
2023-03-23T16:34:38.461Z,14.60
2023-03-23T16:37:08.324Z,22.53
2023-03-23T16:39:38.355Z,11.97
2023-03-23T16:42:07.547Z,12.60
2023-03-23T16:44:37.065Z,10.67
2023-03-23T16:47:06.261Z,9.83
2023-03-23T16:49:35.521Z,9.50
2023-03-23T16:52:05.622Z,9.27
2023-03-23T16:54:37.222Z,10.27
2023-03-23T16:57:06.464Z,8.77
2023-03-23T16:59:37.122Z,9.47
2023-03-23T17:02:06.312Z,8.93
2023-03-23T17:04:36.897Z,8.90
2023-03-23T17:07:07.864Z,8.40
2023-03-23T17:09:40.513Z,10.87
2023-03-23T17:12:10.538Z,12.37
2023-03-23T17:14:42.474Z,9.90
2023-03-23T17:17:14.351Z,8.43
2023-03-23T17:19:45.602Z,13.07
2023-03-23T17:22:14.564Z,11.83
2023-03-23T17:24:47.150Z,10.33
2023-03-23T17:27:19.734Z,9.97
2023-03-23T17:29:49.359Z,9.60
2023-03-23T17:32:21.170Z,10.70
2023-03-23T17:34:50.633Z,9.60
2023-03-23T17:37:20.600Z,12.60
2023-03-23T17:40:06.742Z,12.97
2023-03-23T17:42:39.551Z,8.23
2023-03-23T17:45:10.868Z,11.23
2023-03-23T17:47:41.190Z,9.33
2023-03-23T17:50:12.680Z,9.27
2023-03-23T17:52:42.754Z,9.30
2023-03-23T17:55:12.457Z,10.97
2023-03-23T17:57:42.181Z,16.40
2023-03-23T18:00:20.110Z,27.00
2023-03-23T18:02:49.714Z,23.63
2023-03-23T18:05:21.685Z,18.83
2023-03-23T18:07:50.790Z,24.00
2023-03-23T18:10:20.603Z,30.67
2023-03-23T18:12:55.826Z,23.25
2023-03-23T18:15:28.646Z,18.40
2023-03-23T18:17:59.370Z,17.20
2023-03-23T18:20:30.442Z,14.17
2023-03-23T18:23:03.134Z,13.47
2023-03-23T18:25:33.562Z,11.70
2023-03-23T18:28:05.547Z,9.00
2023-03-23T18:30:36.136Z,12.07
2023-03-23T18:33:05.678Z,14.60
2023-03-23T18:35:35.224Z,11.33
2023-03-23T18:38:04.487Z,12.50
2023-03-23T18:40:35.607Z,14.65
2023-03-23T18:45:43.159Z,12.73
2023-03-23T18:48:15.134Z,14.53
2023-03-23T18:50:49.402Z,9.47
2023-03-23T18:53:20.830Z,12.33
2023-03-23T18:55:50.874Z,12.73
2023-03-23T18:58:23.917Z,17.80
2023-03-23T19:01:00.049Z,10.63
2023-03-23T19:03:30.486Z,10.33
2023-03-23T19:06:01.929Z,9.30
2023-03-23T19:08:31.915Z,12.20
2023-03-23T19:11:04.427Z,10.03
2023-03-23T19:13:36.885Z,7.50
2023-03-23T19:16:08.626Z,8.13
2023-03-23T19:18:43.741Z,7.63
2023-03-23T19:21:16.559Z,8.87
2023-03-23T19:23:52.283Z,7.60
2023-03-23T19:26:33.397Z,10.33
2023-03-23T19:32:00.373Z,8.23
2023-03-23T19:34:30.205Z,8.17
2023-03-23T19:37:05.749Z,6.70
2023-03-23T19:39:41.621Z,9.93
2023-03-23T19:42:17.133Z,6.97
2023-03-23T19:44:46.530Z,6.53
2023-03-23T19:47:18.067Z,6.43
2023-03-23T19:49:47.402Z,9.60
2023-03-23T19:52:21.346Z,6.80
2023-03-23T19:54:50.464Z,8.67
2023-03-23T19:57:22.543Z,7.57
2023-03-23T19:59:51.866Z,5.40
2023-03-23T20:02:21.033Z,7.17
2023-03-23T20:04:52.765Z,6.50
2023-03-23T20:07:26.528Z,6.53
2023-03-23T20:12:24.199Z,6.53
2023-03-23T20:14:53.585Z,7.43
2023-03-23T20:17:22.786Z,4.60
2023-03-23T20:19:52.515Z,6.93
2023-03-23T20:22:24.416Z,6.43
2023-03-23T20:24:53.588Z,6.85
2023-03-23T20:27:22.976Z,6.60
2023-03-23T20:29:55.359Z,5.27
2023-03-23T20:32:24.575Z,5.63
2023-03-23T20:34:53.703Z,5.27
2023-03-23T20:37:23.642Z,6.67
2023-03-23T20:39:56.048Z,5.60
2023-03-23T20:42:25.475Z,4.73
2023-03-23T20:44:54.678Z,5.77
2023-03-23T20:47:23.732Z,6.73
2023-03-23T20:49:58.333Z,4.87
2023-03-23T20:52:27.672Z,6.80
2023-03-23T20:54:57.987Z,6.90
2023-03-23T20:57:28.300Z,6.23
2023-03-23T20:59:57.490Z,7.03
2023-03-23T21:02:29.108Z,5.40
2023-03-23T21:05:03.983Z,4.57
2023-03-23T21:07:33.122Z,5.07
2023-03-23T21:10:02.381Z,4.33
2023-03-23T21:12:31.400Z,7.27
2023-03-23T21:15:00.691Z,5.10
2023-03-23T21:17:29.822Z,5.17
2023-03-23T21:19:58.968Z,7.50
2023-03-23T21:22:28.496Z,9.13
2023-03-23T21:24:58.632Z,4.07
2023-03-23T21:27:27.679Z,7.07
2023-03-23T21:29:59.744Z,6.17
2023-03-23T21:32:28.888Z,7.90
2023-03-23T21:35:02.482Z,8.03
2023-03-23T21:37:32.232Z,7.87
2023-03-23T21:40:02.841Z,9.47
2023-03-23T21:42:31.811Z,8.17
2023-03-23T21:45:02.245Z,6.93
2023-03-23T21:47:31.692Z,10.97
2023-03-23T21:50:01.462Z,7.43
2023-03-23T21:52:32.287Z,8.53
2023-03-23T21:55:09.538Z,10.30
2023-03-23T21:57:40.753Z,8.50
2023-03-23T22:00:17.369Z,9.43
2023-03-23T22:02:46.349Z,10.37
2023-03-23T22:05:15.458Z,11.77
2023-03-23T22:07:47.339Z,9.10
2023-03-23T22:10:17.916Z,10.80
2023-03-23T22:12:49.340Z,11.27
2023-03-23T22:15:27.175Z,11.47
2023-03-23T22:17:56.298Z,9.47
2023-03-23T22:20:26.314Z,11.33
2023-03-23T22:22:55.160Z,11.13
2023-03-23T22:25:24.330Z,11.27
2023-03-23T22:27:54.838Z,10.33
2023-03-23T22:30:24.177Z,12.00
2023-03-23T22:32:54.315Z,10.80
2023-03-23T22:35:23.907Z,13.10
2023-03-23T22:37:53.178Z,10.80
2023-03-23T22:40:23.453Z,13.03
2023-03-23T22:42:52.373Z,11.93
2023-03-23T22:45:22.878Z,11.77
2023-03-23T22:47:51.908Z,11.30
2023-03-23T22:50:23.498Z,13.07
2023-03-23T22:52:52.400Z,9.93
2023-03-23T22:55:21.404Z,12.73
2023-03-23T22:57:50.295Z,12.73
2023-03-23T23:00:20.211Z,11.20
2023-03-23T23:02:49.341Z,12.63
2023-03-23T23:05:20.048Z,12.50
2023-03-23T23:07:49.094Z,10.33
2023-03-23T23:10:19.159Z,11.47
2023-03-23T23:12:48.201Z,7.83
2023-03-23T23:15:17.922Z,9.03
2023-03-23T23:17:46.895Z,7.80
2023-03-23T23:20:17.105Z,10.70
2023-03-23T23:22:46.622Z,8.60
2023-03-23T23:25:15.778Z,9.07
2023-03-23T23:27:45.558Z,9.10
2023-03-23T23:30:15.109Z,10.63
2023-03-23T23:32:47.038Z,9.67
2023-03-23T23:35:17.234Z,9.63
2023-03-23T23:37:46.623Z,10.90
2023-03-23T23:40:18.209Z,10.03
2023-03-23T23:42:49.032Z,12.03
2023-03-23T23:45:19.645Z,8.80
2023-03-23T23:47:48.554Z,13.23
2023-03-23T23:50:20.442Z,10.70
2023-03-23T23:52:49.529Z,11.53
2023-03-23T23:55:19.974Z,11.20
2023-03-23T23:57:49.732Z,8.27
